createdAt,value
2023-01-25T00:01:04.530Z,19.63
2023-01-25T00:03:31.105Z,21.70
2023-01-25T00:06:01.682Z,19.17
2023-01-25T00:08:28.294Z,20.42
2023-01-25T00:10:56.875Z,19.80
2023-01-25T00:13:23.959Z,19.15
2023-01-25T00:15:50.318Z,19.52
2023-01-25T00:18:16.654Z,21.52
2023-01-25T00:20:42.991Z,22.95
2023-01-25T00:23:09.405Z,21.83
2023-01-25T00:25:35.860Z,19.67
2023-01-25T00:28:02.183Z,18.98
2023-01-25T00:30:28.600Z,21.10
2023-01-25T00:33:27.296Z,21.27
2023-01-25T00:35:56.816Z,22.48
2023-01-25T00:38:26.287Z,24.17
2023-01-25T00:40:52.727Z,20.45
2023-01-25T00:43:19.087Z,21.05
2023-01-25T00:45:45.748Z,22.42
2023-01-25T00:48:12.146Z,21.15
2023-01-25T00:50:38.567Z,23.92
2023-01-25T00:53:05.013Z,22.25
2023-01-25T00:55:31.645Z,20.75
2023-01-25T00:57:58.134Z,20.35
2023-01-25T01:00:24.536Z,22.33
2023-01-25T01:02:50.967Z,21.13
2023-01-25T01:05:17.433Z,21.98
2023-01-25T01:07:43.910Z,21.25
2023-01-25T01:10:10.687Z,21.27
2023-01-25T01:12:37.092Z,22.33
2023-01-25T01:15:03.931Z,24.45
2023-01-25T01:17:30.303Z,23.55
2023-01-25T01:19:56.636Z,22.75
2023-01-25T01:22:23.101Z,22.05
2023-01-25T01:24:49.607Z,21.83
2023-01-25T01:27:16.022Z,21.75
2023-01-25T01:29:42.373Z,20.67
2023-01-25T01:32:08.799Z,23.30
2023-01-25T01:34:35.335Z,23.52
2023-01-25T01:37:01.765Z,24.58
2023-01-25T01:39:28.178Z,24.23
2023-01-25T01:41:54.604Z,22.83
2023-01-25T01:44:42.212Z,22.20
2023-01-25T01:47:15.554Z,22.13
2023-01-25T01:49:47.561Z,23.40
2023-01-25T01:52:17.764Z,21.23
2023-01-25T01:54:57.076Z,21.98
2023-01-25T01:57:29.951Z,21.60
2023-01-25T02:00:02.627Z,21.58
2023-01-25T02:02:29.234Z,21.17
2023-01-25T02:04:59.788Z,21.05
2023-01-25T02:07:35.604Z,21.42
2023-01-25T02:10:04.538Z,22.40
2023-01-25T02:12:32.122Z,20.38
2023-01-25T02:14:58.650Z,19.83
2023-01-25T02:17:35.430Z,21.70
2023-01-25T02:20:05.028Z,19.20
2023-01-25T02:22:44.893Z,21.65
2023-01-25T02:25:13.476Z,21.63
2023-01-25T02:27:46.351Z,20.10
2023-01-25T02:30:12.847Z,21.40
2023-01-25T02:32:39.333Z,20.98
2023-01-25T02:35:06.811Z,20.92
2023-01-25T02:37:33.830Z,21.90
2023-01-25T02:40:00.283Z,20.65
2023-01-25T02:42:30.802Z,21.70
2023-01-25T02:44:57.215Z,23.73
2023-01-25T02:47:23.652Z,23.50
2023-01-25T02:49:50.083Z,24.00
2023-01-25T02:52:16.521Z,23.58
2023-01-25T02:54:42.963Z,23.10
2023-01-25T02:57:09.712Z,21.95
2023-01-25T02:59:36.853Z,21.35
2023-01-25T03:02:03.176Z,24.05
2023-01-25T03:04:29.620Z,23.08
2023-01-25T03:06:55.980Z,22.40
2023-01-25T03:09:22.395Z,20.67
2023-01-25T03:11:48.945Z,22.67
2023-01-25T03:14:15.389Z,22.35
2023-01-25T03:16:41.804Z,21.48
2023-01-25T03:19:08.224Z,23.10
2023-01-25T03:21:34.575Z,24.73
2023-01-25T03:24:02.062Z,23.40
2023-01-25T03:26:29.497Z,22.15
2023-01-25T03:28:55.920Z,25.02
2023-01-25T03:31:22.584Z,22.20
2023-01-25T03:33:49.743Z,23.70
2023-01-25T03:36:16.310Z,24.88
2023-01-25T03:38:42.700Z,25.77
2023-01-25T03:41:09.420Z,25.08
2023-01-25T03:43:35.774Z,24.80
2023-01-25T03:46:02.683Z,25.98
2023-01-25T03:48:30.164Z,26.52
2023-01-25T03:50:58.846Z,24.02
2023-01-25T03:53:29.620Z,24.67
2023-01-25T03:56:02.056Z,25.42
2023-01-25T03:58:30.208Z,27.38
2023-01-25T04:00:59.463Z,26.27
2023-01-25T04:03:26.383Z,26.38
2023-01-25T04:05:53.418Z,28.52
2023-01-25T04:08:20.273Z,29.58
2023-01-25T04:10:54.219Z,31.45
2023-01-25T04:13:22.056Z,30.42
2023-01-25T04:15:49.095Z,29.25
2023-01-25T04:18:16.079Z,30.80
2023-01-25T04:20:43.271Z,32.60
2023-01-25T04:23:10.356Z,32.58
2023-01-25T04:25:37.589Z,32.25
2023-01-25T04:28:05.072Z,32.17
2023-01-25T04:30:31.491Z,33.15
2023-01-25T04:33:03.172Z,33.15
2023-01-25T04:35:29.582Z,32.22
2023-01-25T04:37:57.433Z,31.92
2023-01-25T04:40:24.081Z,32.85
2023-01-25T04:42:50.413Z,34.67
2023-01-25T04:45:16.850Z,31.70
2023-01-25T04:47:43.267Z,33.55
2023-01-25T04:50:10.219Z,34.17
2023-01-25T04:52:36.560Z,32.53
2023-01-25T04:55:03.184Z,37.40
2023-01-25T04:57:29.650Z,33.83
2023-01-25T04:59:56.025Z,35.08
2023-01-25T05:02:22.576Z,37.40
2023-01-25T05:04:49.000Z,36.35
2023-01-25T05:07:15.460Z,37.55
2023-01-25T05:09:41.909Z,37.45
2023-01-25T05:12:11.742Z,36.60
2023-01-25T05:14:38.899Z,34.47
2023-01-25T05:17:06.558Z,37.38
2023-01-25T05:19:33.933Z,37.53
2023-01-25T05:22:02.735Z,38.25
2023-01-25T05:24:31.580Z,40.78
2023-01-25T05:27:01.507Z,39.90
2023-01-25T05:29:28.513Z,37.55
2023-01-25T05:31:55.226Z,38.15
2023-01-25T05:34:21.825Z,40.33
2023-01-25T05:36:48.254Z,39.22
2023-01-25T05:39:14.792Z,39.45
2023-01-25T05:41:41.205Z,40.95
2023-01-25T05:44:07.567Z,41.78
2023-01-25T05:46:34.034Z,42.90
2023-01-25T05:49:00.510Z,39.05
2023-01-25T05:51:27.083Z,40.78
2023-01-25T05:53:56.568Z,41.47
2023-01-25T05:56:23.395Z,44.13
2023-01-25T05:58:57.175Z,38.65
2023-01-25T06:01:24.281Z,40.90
2023-01-25T06:03:51.183Z,42.65
2023-01-25T06:06:17.833Z,39.05
2023-01-25T06:08:44.650Z,41.40
2023-01-25T06:11:13.367Z,41.00
2023-01-25T06:13:39.840Z,42.38
2023-01-25T06:16:06.665Z,40.15
2023-01-25T06:18:34.729Z,41.03
2023-01-25T06:21:02.904Z,38.97
2023-01-25T06:23:29.848Z,41.97
2023-01-25T06:26:05.403Z,40.30
2023-01-25T06:28:36.137Z,38.90
2023-01-25T06:31:10.787Z,38.72
2023-01-25T06:33:37.909Z,41.90
2023-01-25T06:36:07.140Z,39.65
2023-01-25T06:38:33.806Z,38.13
2023-01-25T06:41:01.745Z,39.25
2023-01-25T06:43:28.446Z,38.60
2023-01-25T06:46:01.928Z,36.92
2023-01-25T06:48:31.375Z,37.20
2023-01-25T06:51:00.048Z,40.15
2023-01-25T06:53:28.210Z,35.97
2023-01-25T06:56:02.218Z,36.05
2023-01-25T06:58:30.112Z,39.47
2023-01-25T07:01:13.484Z,36.35
2023-01-25T07:03:40.096Z,40.63
2023-01-25T07:06:08.292Z,40.47
2023-01-25T07:08:35.967Z,39.13
2023-01-25T07:11:05.261Z,39.33
2023-01-25T07:13:33.726Z,38.38
2023-01-25T07:16:05.756Z,36.50
2023-01-25T07:18:33.188Z,38.15
2023-01-25T07:21:08.044Z,37.42
2023-01-25T07:23:37.866Z,35.13
2023-01-25T07:26:05.853Z,37.30
2023-01-25T07:28:33.001Z,34.65
2023-01-25T07:31:06.532Z,40.50
2023-01-25T07:33:35.538Z,35.90
2023-01-25T07:36:03.737Z,35.45
2023-01-25T07:38:30.180Z,36.45
2023-01-25T07:40:57.216Z,36.92
2023-01-25T07:43:24.271Z,37.70
2023-01-25T07:45:50.933Z,38.97
2023-01-25T07:48:18.577Z,38.08
2023-01-25T07:50:49.652Z,34.90
2023-01-25T07:53:17.186Z,38.08
2023-01-25T07:55:43.649Z,35.65
2023-01-25T07:58:11.105Z,41.30
2023-01-25T08:00:37.628Z,41.22
2023-01-25T08:03:04.279Z,40.22
2023-01-25T08:05:30.637Z,37.88
2023-01-25T08:07:56.976Z,37.33
2023-01-25T08:10:23.345Z,36.00
2023-01-25T08:12:49.778Z,33.67
2023-01-25T08:15:16.219Z,35.03
2023-01-25T08:17:42.568Z,38.78
2023-01-25T08:20:09.719Z,36.63
2023-01-25T08:22:36.486Z,36.92
2023-01-25T08:25:04.232Z,34.72
2023-01-25T08:27:30.652Z,34.22
2023-01-25T08:29:59.422Z,33.55
2023-01-25T08:32:25.841Z,37.60
2023-01-25T08:34:52.218Z,36.78
2023-01-25T08:37:18.631Z,36.20
2023-01-25T08:39:44.974Z,34.67
2023-01-25T08:42:11.401Z,34.75
2023-01-25T08:44:37.757Z,37.35
2023-01-25T08:47:04.164Z,33.25
2023-01-25T08:49:31.648Z,36.22
2023-01-25T08:51:58.422Z,35.70
2023-01-25T08:54:25.027Z,35.45
2023-01-25T08:56:51.441Z,36.28
2023-01-25T08:59:17.870Z,38.50
2023-01-25T09:01:44.326Z,35.20
2023-01-25T09:04:10.751Z,32.35
2023-01-25T09:06:37.172Z,33.55
2023-01-25T09:09:04.790Z,33.53
2023-01-25T09:11:34.513Z,34.58
2023-01-25T09:14:00.976Z,34.78
2023-01-25T09:16:28.827Z,34.42
2023-01-25T09:18:57.942Z,32.13
2023-01-25T09:21:24.716Z,33.20
2023-01-25T09:24:05.417Z,33.72
2023-01-25T09:26:40.677Z,36.03
2023-01-25T09:29:08.482Z,34.45
2023-01-25T09:31:35.731Z,35.17
2023-01-25T09:34:02.379Z,32.75
2023-01-25T09:36:28.786Z,32.67
2023-01-25T09:38:55.949Z,37.58
2023-01-25T09:41:28.588Z,37.88
2023-01-25T09:44:15.247Z,34.45
2023-01-25T09:46:52.430Z,35.40
2023-01-25T09:49:27.976Z,34.40
2023-01-25T09:52:15.721Z,33.33
2023-01-25T09:54:47.443Z,33.70
2023-01-25T09:57:28.441Z,32.22
2023-01-25T09:59:56.505Z,34.58
2023-01-25T10:02:39.833Z,36.33
2023-01-25T10:05:15.483Z,38.72
2023-01-25T10:08:10.435Z,34.45
2023-01-25T10:10:42.166Z,33.35
2023-01-25T10:13:14.007Z,34.83
2023-01-25T10:15:44.767Z,31.63
2023-01-25T10:18:24.691Z,34.90
2023-01-25T10:20:57.079Z,33.50
2023-01-25T10:23:29.461Z,33.33
2023-01-25T10:26:10.926Z,35.85
2023-01-25T10:28:49.956Z,37.75
2023-01-25T10:31:25.797Z,37.17
2023-01-25T10:33:53.901Z,36.47
2023-01-25T10:36:29.952Z,36.40
2023-01-25T10:39:01.511Z,34.05
2023-01-25T10:41:56.612Z,36.30
2023-01-25T10:44:25.963Z,33.47
2023-01-25T10:46:58.528Z,33.78
2023-01-25T10:49:39.550Z,34.00
2023-01-25T10:52:23.733Z,35.58
2023-01-25T10:55:14.941Z,33.88
2023-01-25T10:57:48.139Z,35.53
2023-01-25T11:00:23.380Z,34.47
2023-01-25T11:02:49.865Z,33.03
2023-01-25T11:05:35.693Z,34.50
2023-01-25T11:08:42.980Z,31.08
2023-01-25T11:11:31.135Z,33.55
2023-01-25T11:13:57.758Z,32.45
2023-01-25T11:16:46.087Z,33.80
2023-01-25T11:19:27.603Z,32.83
2023-01-25T11:21:58.644Z,35.08
2023-01-25T11:24:30.132Z,30.60
2023-01-25T11:27:12.897Z,34.70
2023-01-25T11:29:39.488Z,36.53
2023-01-25T11:32:20.218Z,33.78
2023-01-25T11:34:47.150Z,37.67
2023-01-25T11:37:35.412Z,35.03
2023-01-25T11:40:19.275Z,30.27
2023-01-25T11:42:48.774Z,30.75
2023-01-25T11:45:33.973Z,32.80
2023-01-25T11:48:18.376Z,34.47
2023-01-25T11:50:51.309Z,31.55
2023-01-25T11:53:36.605Z,35.70
2023-01-25T11:56:24.279Z,32.10
2023-01-25T11:59:10.493Z,34.78
2023-01-25T12:02:09.802Z,33.35
2023-01-25T12:04:52.523Z,31.75
2023-01-25T12:08:04.412Z,33.35
2023-01-25T12:10:55.188Z,33.42
2023-01-25T12:13:34.947Z,32.83
2023-01-25T12:16:07.649Z,34.05
2023-01-25T12:18:51.392Z,31.25
2023-01-25T12:21:32.621Z,34.83
2023-01-25T12:24:24.768Z,33.20
2023-01-25T12:27:06.268Z,33.42
2023-01-25T12:29:38.556Z,34.00
2023-01-25T12:32:17.068Z,33.63
2023-01-25T12:34:49.242Z,32.85
2023-01-25T12:37:21.626Z,36.30
2023-01-25T12:40:12.531Z,37.75
2023-01-25T12:42:52.084Z,37.72
2023-01-25T12:45:27.964Z,34.28
2023-01-25T12:48:01.621Z,38.95
2023-01-25T12:50:38.747Z,36.72
2023-01-25T12:53:25.539Z,37.72
2023-01-25T12:55:53.205Z,35.10
2023-01-25T12:58:38.565Z,35.30
2023-01-25T13:01:11.298Z,35.97
2023-01-25T13:04:15.047Z,34.20
2023-01-25T13:06:57.687Z,33.97
2023-01-25T13:09:33.311Z,36.47
2023-01-25T13:14:30.209Z,35.03
2023-01-25T13:17:22.242Z,36.05
2023-01-25T13:19:50.315Z,38.20
2023-01-25T13:22:45.376Z,38.10
2023-01-25T13:25:17.773Z,37.35
2023-01-25T13:27:44.215Z,39.75
2023-01-25T13:30:16.478Z,36.67
2023-01-25T13:32:51.927Z,37.05
2023-01-25T13:35:37.083Z,42.03
2023-01-25T13:38:24.461Z,39.47
2023-01-25T13:41:12.613Z,39.53
2023-01-25T13:43:41.061Z,42.13
2023-01-25T13:46:10.132Z,40.88
2023-01-25T13:48:45.463Z,40.25
2023-01-25T13:51:16.266Z,44.67
2023-01-25T13:53:43.410Z,42.03
2023-01-25T13:56:45.637Z,41.33
2023-01-25T13:59:26.434Z,41.30
2023-01-25T14:01:53.038Z,38.13
2023-01-25T14:04:19.714Z,42.25
2023-01-25T14:06:46.343Z,41.05
2023-01-25T14:09:17.149Z,40.75
2023-01-25T14:11:54.756Z,44.38
2023-01-25T14:14:34.513Z,44.10
2023-01-25T14:17:16.385Z,46.20
2023-01-25T14:19:46.229Z,48.35
2023-01-25T14:22:22.995Z,43.10
2023-01-25T14:25:12.153Z,46.08
2023-01-25T14:27:43.512Z,41.03
2023-01-25T14:30:18.877Z,46.38
2023-01-25T14:32:45.311Z,47.17
2023-01-25T14:35:43.033Z,48.08
2023-01-25T14:38:33.959Z,44.85
2023-01-25T14:41:12.197Z,45.85
2023-01-25T14:43:43.019Z,46.08
2023-01-25T14:46:18.642Z,47.47
2023-01-25T14:51:22.392Z,46.25
2023-01-25T14:53:55.838Z,58.17
2023-01-25T14:56:29.895Z,54.40
2023-01-25T14:59:00.029Z,51.78
2023-01-25T15:01:34.555Z,56.05
2023-01-25T15:04:01.056Z,52.28
2023-01-25T15:06:27.631Z,60.78
2023-01-25T15:08:54.268Z,57.60
2023-01-25T15:11:37.588Z,61.33
2023-01-25T15:14:19.795Z,65.70
2023-01-25T15:16:46.611Z,69.63
2023-01-25T15:19:25.491Z,68.85
2023-01-25T15:21:53.838Z,65.78
2023-01-25T15:24:20.436Z,74.32
2023-01-25T15:26:50.399Z,71.05
2023-01-25T15:29:23.487Z,73.88
2023-01-25T15:31:51.283Z,71.03
2023-01-25T15:34:30.250Z,71.68
2023-01-25T15:36:57.542Z,73.88
2023-01-25T15:39:24.017Z,73.40
2023-01-25T15:41:50.499Z,72.25
2023-01-25T15:44:17.544Z,67.38
2023-01-25T15:46:48.571Z,67.70
2023-01-25T15:49:24.769Z,77.43
2023-01-25T15:51:51.091Z,74.18
2023-01-25T15:54:17.504Z,74.55
2023-01-25T15:56:47.024Z,75.05
2023-01-25T15:59:17.122Z,77.80
2023-01-25T16:01:44.001Z,76.15
2023-01-25T16:04:13.518Z,82.07
2023-01-25T16:06:47.051Z,80.32
2023-01-25T16:09:26.645Z,77.38
2023-01-25T16:11:55.844Z,72.38
2023-01-25T16:14:23.751Z,67.82
2023-01-25T16:16:52.207Z,92.65
2023-01-25T16:19:21.917Z,79.07
2023-01-25T16:21:49.159Z,73.35
2023-01-25T16:24:15.616Z,77.43
2023-01-25T16:26:49.636Z,73.68
2023-01-25T16:29:16.044Z,81.10
2023-01-25T16:31:42.490Z,79.10
2023-01-25T16:34:09.329Z,86.25
2023-01-25T16:36:37.128Z,85.80
2023-01-25T16:39:20.023Z,83.32
2023-01-25T16:41:47.384Z,89.70
2023-01-25T16:44:13.888Z,87.68
2023-01-25T16:46:40.337Z,85.45
2023-01-25T16:49:09.759Z,91.63
2023-01-25T16:51:37.208Z,82.32
2023-01-25T16:54:03.815Z,83.93
2023-01-25T16:56:32.706Z,88.65
2023-01-25T16:59:05.219Z,87.22
2023-01-25T17:01:32.169Z,84.13
2023-01-25T17:03:59.007Z,78.97
2023-01-25T17:06:28.482Z,81.82
2023-01-25T17:08:57.930Z,82.22
2023-01-25T17:11:25.258Z,91.40
2023-01-25T17:13:54.130Z,81.07
2023-01-25T17:16:22.496Z,85.68
2023-01-25T17:18:57.039Z,79.70
2023-01-25T17:21:23.576Z,87.60
2023-01-25T17:23:50.868Z,83.93
2023-01-25T17:26:19.735Z,89.40
2023-01-25T17:28:46.984Z,91.57
2023-01-25T17:31:19.754Z,90.65
2023-01-25T17:33:46.913Z,87.25
2023-01-25T17:36:15.028Z,88.15
2023-01-25T17:38:42.164Z,86.82
2023-01-25T17:41:11.790Z,87.82
2023-01-25T17:43:38.716Z,91.32
2023-01-25T17:46:20.321Z,87.30
2023-01-25T17:48:48.131Z,95.43
2023-01-25T17:51:14.970Z,89.53
2023-01-25T17:53:41.413Z,79.85
2023-01-25T17:56:08.487Z,82.32
2023-01-25T17:58:36.949Z,87.82
2023-01-25T18:01:24.380Z,85.97
2023-01-25T18:03:53.397Z,81.40
2023-01-25T18:06:22.555Z,80.82
2023-01-25T18:08:51.161Z,79.05
2023-01-25T18:11:21.008Z,82.32
2023-01-25T18:13:49.984Z,74.65
2023-01-25T18:16:18.284Z,84.30
2023-01-25T18:18:45.805Z,83.78
2023-01-25T18:21:22.206Z,81.43
2023-01-25T18:23:48.866Z,80.65
2023-01-25T18:26:21.497Z,79.80
2023-01-25T18:28:48.237Z,82.38
2023-01-25T18:31:18.832Z,77.40
2023-01-25T18:33:45.400Z,74.78
2023-01-25T18:36:18.750Z,73.57
2023-01-25T18:38:45.562Z,72.95
2023-01-25T18:41:12.732Z,66.03
2023-01-25T18:43:39.261Z,70.88
2023-01-25T18:46:05.798Z,74.05
2023-01-25T18:48:32.610Z,71.00
2023-01-25T18:51:08.112Z,74.10
2023-01-25T18:53:36.572Z,75.80
2023-01-25T18:56:08.260Z,75.60
2023-01-25T18:58:36.921Z,78.82
2023-01-25T19:01:12.240Z,75.22
2023-01-25T19:03:38.675Z,79.07
2023-01-25T19:06:05.309Z,76.43
2023-01-25T19:08:33.257Z,77.40
2023-01-25T19:11:06.075Z,80.38
2023-01-25T19:13:37.336Z,75.55
2023-01-25T19:16:10.571Z,78.65
2023-01-25T19:18:40.529Z,77.55
2023-01-25T19:21:09.000Z,84.80
2023-01-25T19:23:38.364Z,75.50
2023-01-25T19:26:06.468Z,76.38
2023-01-25T19:28:34.767Z,79.18
2023-01-25T19:31:09.566Z,84.38
2023-01-25T19:33:36.411Z,83.18
2023-01-25T19:36:04.662Z,79.75
2023-01-25T19:38:31.957Z,83.72
2023-01-25T19:41:09.717Z,80.50
2023-01-25T19:43:36.515Z,80.13
2023-01-25T19:46:26.733Z,82.65
2023-01-25T19:48:54.395Z,80.28
2023-01-25T19:51:22.668Z,82.22
2023-01-25T19:53:58.949Z,77.20
2023-01-25T19:56:30.268Z,79.78
2023-01-25T19:58:56.750Z,79.35
2023-01-25T20:01:28.895Z,76.65
2023-01-25T20:03:57.817Z,78.32
2023-01-25T20:06:25.763Z,77.22
2023-01-25T20:08:53.094Z,72.30
2023-01-25T20:11:24.819Z,74.32
2023-01-25T20:13:53.674Z,69.03
2023-01-25T20:16:20.287Z,79.40
2023-01-25T20:18:48.627Z,77.82
2023-01-25T20:21:17.721Z,81.20
2023-01-25T20:23:49.510Z,79.22
2023-01-25T20:26:19.469Z,83.45
2023-01-25T20:28:51.448Z,80.57
2023-01-25T20:31:20.830Z,86.32
2023-01-25T20:33:47.746Z,85.68
2023-01-25T20:36:14.160Z,81.20
2023-01-25T20:38:40.688Z,84.45
2023-01-25T20:41:09.555Z,88.50
2023-01-25T20:43:35.995Z,86.30
2023-01-25T20:46:03.254Z,89.85
2023-01-25T20:48:31.108Z,85.88
2023-01-25T20:51:01.914Z,86.15
2023-01-25T20:53:29.763Z,85.95
2023-01-25T20:55:58.125Z,88.70
2023-01-25T20:58:24.653Z,92.43
2023-01-25T21:00:51.258Z,84.05
2023-01-25T21:03:17.623Z,85.03
2023-01-25T21:05:55.119Z,83.32
2023-01-25T21:08:22.174Z,87.40
2023-01-25T21:10:57.272Z,79.93
2023-01-25T21:13:24.760Z,83.57
2023-01-25T21:16:05.870Z,81.50
2023-01-25T21:18:37.810Z,80.25
2023-01-25T21:21:09.779Z,81.28
2023-01-25T21:23:38.843Z,78.68
2023-01-25T21:26:06.465Z,82.95
2023-01-25T21:28:33.637Z,81.43
2023-01-25T21:31:20.783Z,86.43
2023-01-25T21:33:47.867Z,85.95
2023-01-25T21:36:15.718Z,82.03
2023-01-25T21:38:44.372Z,87.88
2023-01-25T21:41:14.143Z,81.80
2023-01-25T21:43:58.941Z,81.30
2023-01-25T21:46:27.065Z,83.45
2023-01-25T21:49:19.941Z,76.20
2023-01-25T21:51:51.738Z,74.00
2023-01-25T21:54:20.868Z,79.13
2023-01-25T21:56:49.208Z,79.93
2023-01-25T21:59:16.184Z,76.80
2023-01-25T22:01:43.095Z,80.15
2023-01-25T22:04:10.061Z,83.18
2023-01-25T22:06:36.456Z,88.63
2023-01-25T22:09:03.189Z,86.72
2023-01-25T22:11:29.593Z,85.47
2023-01-25T22:13:56.089Z,84.20
2023-01-25T22:16:22.689Z,88.40
2023-01-25T22:18:49.172Z,81.57
2023-01-25T22:21:20.052Z,83.03
2023-01-25T22:23:47.484Z,86.45
2023-01-25T22:26:16.837Z,87.25
2023-01-25T22:28:54.973Z,92.45
2023-01-25T22:31:23.841Z,92.28
2023-01-25T22:33:51.331Z,98.10
2023-01-25T22:36:19.676Z,92.97
2023-01-25T22:38:46.183Z,99.47
2023-01-25T22:41:14.655Z,102.10
2023-01-25T22:43:41.408Z,95.53
2023-01-25T22:46:11.450Z,99.15
2023-01-25T22:48:37.795Z,101.30
2023-01-25T22:51:13.416Z,99.97
2023-01-25T22:56:10.272Z,98.20
2023-01-25T22:58:38.824Z,102.50
2023-01-25T23:01:09.637Z,95.05
2023-01-25T23:03:36.973Z,97.10
2023-01-25T23:06:06.916Z,102.68
2023-01-25T23:08:35.733Z,109.70
2023-01-25T23:11:06.105Z,99.38
2023-01-25T23:13:32.998Z,97.90
2023-01-25T23:16:08.518Z,101.97
2023-01-25T23:21:28.049Z,91.88
2023-01-25T23:23:55.943Z,100.45
2023-01-25T23:26:23.394Z,101.65
2023-01-25T23:28:54.495Z,100.20
2023-01-25T23:31:24.038Z,103.38
2023-01-25T23:33:53.431Z,99.10
2023-01-25T23:36:23.764Z,97.55
2023-01-25T23:38:50.432Z,97.03
2023-01-25T23:41:18.513Z,99.65
2023-01-25T23:43:45.423Z,100.07
2023-01-25T23:46:14.183Z,100.60
2023-01-25T23:48:41.656Z,97.57
2023-01-25T23:51:08.752Z,97.63
2023-01-25T23:53:35.127Z,98.20
2023-01-25T23:56:05.932Z,102.38
2023-01-25T23:58:37.194Z,95.53
